Terminal Aerodrome Forecast
Issued by NWS

Home | Current Version | Previous Version | Text Only | Print | Product List | Glossary On
Versions: 1 2 3 4 5 6 7 8 9 10 11 12 13 14 15 16 17
000
FTUS43 KIND 281100 RRA
TAFHUF
TAF
KHUF 281145Z 2812/0112 09006KT P6SM OVC100
     FM281900 11008KT P6SM SCT035 OVC060
     FM282300 11004KT 2SM -SN BR OVC015
     FM010300 11004KT 1SM -SN BR OVC006=

USA.gov is the U.S. government's official web portal to all federal, state and local government web resources and services.